sensor_id;sensor_type;location;lat;lon;timestamp;pressure;altitude;pressure_sealevel;temperature;humidity
70445;BME280;57902;49.638;11.070;2023-06-19T00:01:06;97855.34;;;19.71;54.72
70445;BME280;57902;49.638;11.070;2023-06-19T00:03:33;97853.03;;;19.55;56.12
70445;BME280;57902;49.638;11.070;2023-06-19T00:06:00;97846.97;;;19.54;55.77
70445;BME280;57902;49.638;11.070;2023-06-19T00:08:26;97855.16;;;19.50;55.94
70445;BME280;57902;49.638;11.070;2023-06-19T00:10:54;97854.53;;;19.46;56.39
70445;BME280;57902;49.638;11.070;2023-06-19T00:13:21;97846.41;;;19.38;57.17
70445;BME280;57902;49.638;11.070;2023-06-19T00:15:47;97845.81;;;19.34;57.53
70445;BME280;57902;49.638;11.070;2023-06-19T00:18:14;97841.75;;;19.30;58.70
70445;BME280;57902;49.638;11.070;2023-06-19T00:20:42;97838.31;;;19.30;57.94
70445;BME280;57902;49.638;11.070;2023-06-19T00:23:12;97846.03;;;19.31;58.54
70445;BME280;57902;49.638;11.070;2023-06-19T00:25:41;97837.97;;;19.34;57.90
70445;BME280;57902;49.638;11.070;2023-06-19T00:28:08;97843.06;;;19.36;57.23
70445;BME280;57902;49.638;11.070;2023-06-19T00:30:37;97831.91;;;19.34;57.65
70445;BME280;57902;49.638;11.070;2023-06-19T00:33:04;97833.44;;;19.36;57.34
70445;BME280;57902;49.638;11.070;2023-06-19T00:35:31;97837.84;;;19.36;57.27
70445;BME280;57902;49.638;11.070;2023-06-19T00:37:58;97832.84;;;19.33;57.42
70445;BME280;57902;49.638;11.070;2023-06-19T00:40:31;97830.56;;;19.28;57.05
70445;BME280;57902;49.638;11.070;2023-06-19T00:42:58;97830.81;;;19.25;57.30
70445;BME280;57902;49.638;11.070;2023-06-19T00:45:26;97833.53;;;19.23;57.74
70445;BME280;57902;49.638;11.070;2023-06-19T00:47:53;97838.63;;;19.25;57.24
70445;BME280;57902;49.638;11.070;2023-06-19T00:50:24;97838.13;;;19.20;57.44
70445;BME280;57902;49.638;11.070;2023-06-19T00:52:51;97831.34;;;19.17;57.70
70445;BME280;57902;49.638;11.070;2023-06-19T00:55:18;97836.88;;;19.13;58.35
70445;BME280;57902;49.638;11.070;2023-06-19T00:57:45;97834.28;;;19.13;58.32
70445;BME280;57902;49.638;11.070;2023-06-19T01:00:12;97842.13;;;19.13;58.36
70445;BME280;57902;49.638;11.070;2023-06-19T01:02:39;97836.88;;;19.13;57.33
70445;BME280;57902;49.638;11.070;2023-06-19T01:05:06;97838.75;;;19.23;56.49
70445;BME280;57902;49.638;11.070;2023-06-19T01:07:46;97846.47;;;19.25;56.53
70445;BME280;57902;49.638;11.070;2023-06-19T01:10:18;97836.44;;;19.19;56.79
70445;BME280;57902;49.638;11.070;2023-06-19T01:12:52;97833.00;;;19.18;56.43
70445;BME280;57902;49.638;11.070;2023-06-19T01:15:22;97834.28;;;19.13;56.83
70445;BME280;57902;49.638;11.070;2023-06-19T01:17:50;97827.72;;;19.07;57.33
70445;BME280;57902;49.638;11.070;2023-06-19T01:20:17;97832.56;;;19.00;57.47
70445;BME280;57902;49.638;11.070;2023-06-19T01:22:47;97827.56;;;18.97;56.91
70445;BME280;57902;49.638;11.070;2023-06-19T01:25:13;97833.38;;;19.01;56.68
70445;BME280;57902;49.638;11.070;2023-06-19T01:27:41;97830.22;;;19.09;54.70
70445;BME280;57902;49.638;11.070;2023-06-19T01:30:10;97827.91;;;19.17;53.70
70445;BME280;57902;49.638;11.070;2023-06-19T01:35:12;97823.78;;;19.50;46.85
70445;BME280;57902;49.638;11.070;2023-06-19T01:37:41;97835.25;;;19.71;45.02
70445;BME280;57902;49.638;11.070;2023-06-19T01:40:09;97832.47;;;19.86;44.53
70445;BME280;57902;49.638;11.070;2023-06-19T01:42:38;97832.03;;;20.03;43.63
70445;BME280;57902;49.638;11.070;2023-06-19T01:45:06;97830.84;;;20.19;42.96
70445;BME280;57902;49.638;11.070;2023-06-19T01:47:33;97836.97;;;20.31;42.35
70445;BME280;57902;49.638;11.070;2023-06-19T01:50:00;97826.03;;;20.37;41.91
70445;BME280;57902;49.638;11.070;2023-06-19T01:52:26;97823.28;;;20.50;41.18
70445;BME280;57902;49.638;11.070;2023-06-19T01:54:53;97825.44;;;20.56;41.14
70445;BME280;57902;49.638;11.070;2023-06-19T01:57:20;97829.34;;;20.61;40.62
70445;BME280;57902;49.638;11.070;2023-06-19T01:59:46;97824.13;;;20.61;41.55
70445;BME280;57902;49.638;11.070;2023-06-19T02:02:13;97832.56;;;20.65;41.03
70445;BME280;57902;49.638;11.070;2023-06-19T02:04:39;97836.97;;;20.65;40.99
70445;BME280;57902;49.638;11.070;2023-06-19T02:07:06;97830.75;;;20.66;40.66
70445;BME280;57902;49.638;11.070;2023-06-19T02:09:33;97827.09;;;20.68;40.99
70445;BME280;57902;49.638;11.070;2023-06-19T02:11:59;97829.47;;;20.71;40.07
70445;BME280;57902;49.638;11.070;2023-06-19T02:14:26;97818.75;;;20.74;40.26
70445;BME280;57902;49.638;11.070;2023-06-19T02:16:52;97818.75;;;20.74;40.20
70445;BME280;57902;49.638;11.070;2023-06-19T02:19:19;97825.91;;;20.72;40.54
70445;BME280;57902;49.638;11.070;2023-06-19T02:21:46;97826.84;;;20.71;40.36
70445;BME280;57902;49.638;11.070;2023-06-19T02:24:12;97821.88;;;20.68;40.45
70445;BME280;57902;49.638;11.070;2023-06-19T02:26:39;97818.06;;;20.72;39.98
70445;BME280;57902;49.638;11.070;2023-06-19T02:29:05;97812.25;;;20.69;40.40
70445;BME280;57902;49.638;11.070;2023-06-19T02:31:32;97824.38;;;20.70;40.42
70445;BME280;57902;49.638;11.070;2023-06-19T02:34:01;97824.38;;;20.70;40.79
70445;BME280;57902;49.638;11.070;2023-06-19T02:36:28;97822.72;;;20.69;39.89
70445;BME280;57902;49.638;11.070;2023-06-19T02:38:56;97826.41;;;20.66;40.26
70445;BME280;57902;49.638;11.070;2023-06-19T02:41:23;97833.50;;;20.64;40.66
70445;BME280;57902;49.638;11.070;2023-06-19T02:43:49;97832.81;;;20.62;41.00
70445;BME280;57902;49.638;11.070;2023-06-19T02:46:16;97834.81;;;20.58;40.23
70445;BME280;57902;49.638;11.070;2023-06-19T02:48:43;97836.72;;;20.56;40.66
70445;BME280;57902;49.638;11.070;2023-06-19T02:51:10;97833.28;;;20.56;40.83
70445;BME280;57902;49.638;11.070;2023-06-19T02:53:36;97834.72;;;20.60;40.46
70445;BME280;57902;49.638;11.070;2023-06-19T02:56:03;97828.50;;;20.61;40.47
70445;BME280;57902;49.638;11.070;2023-06-19T02:58:30;97828.75;;;20.58;40.78
70445;BME280;57902;49.638;11.070;2023-06-19T03:00:57;97830.91;;;20.53;41.16
70445;BME280;57902;49.638;11.070;2023-06-19T03:03:24;97827.69;;;20.49;41.02
70445;BME280;57902;49.638;11.070;2023-06-19T03:05:51;97836.38;;;20.50;40.94
70445;BME280;57902;49.638;11.070;2023-06-19T03:08:17;97840.28;;;20.55;40.64
70445;BME280;57902;49.638;11.070;2023-06-19T03:10:44;97843.75;;;20.56;41.33
70445;BME280;57902;49.638;11.070;2023-06-19T03:13:12;97840.41;;;20.54;41.02
70445;BME280;57902;49.638;11.070;2023-06-19T03:15:38;97849.00;;;20.56;41.03
70445;BME280;57902;49.638;11.070;2023-06-19T03:18:05;97856.84;;;20.56;40.88
70445;BME280;57902;49.638;11.070;2023-06-19T03:20:33;97858.50;;;20.57;41.30
70445;BME280;57902;49.638;11.070;2023-06-19T03:23:00;97856.84;;;20.56;41.63
70445;BME280;57902;49.638;11.070;2023-06-19T03:25:27;97859.00;;;20.62;41.32
70445;BME280;57902;49.638;11.070;2023-06-19T03:28:03;97870.16;;;20.64;41.00
70445;BME280;57902;49.638;11.070;2023-06-19T03:30:29;97871.63;;;20.68;40.88
70445;BME280;57902;49.638;11.070;2023-06-19T03:32:56;97873.19;;;20.71;41.18
70445;BME280;57902;49.638;11.070;2023-06-19T03:35:23;97881.28;;;20.79;41.21
70445;BME280;57902;49.638;11.070;2023-06-19T03:37:49;97882.44;;;20.86;41.00
70445;BME280;57902;49.638;11.070;2023-06-19T03:40:16;97888.53;;;20.87;40.72
70445;BME280;57902;49.638;11.070;2023-06-19T03:42:43;97897.84;;;20.91;41.47
70445;BME280;57902;49.638;11.070;2023-06-19T03:45:09;97897.34;;;20.97;41.05
70445;BME280;57902;49.638;11.070;2023-06-19T03:47:36;97900.53;;;21.01;41.02
70445;BME280;57902;49.638;11.070;2023-06-19T03:50:03;97907.47;;;21.02;41.41
70445;BME280;57902;49.638;11.070;2023-06-19T03:52:50;97904.47;;;21.06;40.73
70445;BME280;57902;49.638;11.070;2023-06-19T03:55:17;97908.97;;;21.15;41.09
70445;BME280;57902;49.638;11.070;2023-06-19T03:57:44;97906.16;;;21.19;41.21
70445;BME280;57902;49.638;11.070;2023-06-19T04:00:11;97914.84;;;21.19;41.50
70445;BME280;57902;49.638;11.070;2023-06-19T04:02:39;97913.75;;;21.22;41.28
70445;BME280;57902;49.638;11.070;2023-06-19T04:05:06;97922.91;;;21.27;41.30
70445;BME280;57902;49.638;11.070;2023-06-19T04:07:33;97923.50;;;21.31;41.44
70445;BME280;57902;49.638;11.070;2023-06-19T04:10:00;97920.16;;;21.40;41.04
70445;BME280;57902;49.638;11.070;2023-06-19T04:12:26;97925.75;;;21.36;41.77
70445;BME280;57902;49.638;11.070;2023-06-19T04:14:53;97908.34;;;21.46;41.34
70445;BME280;57902;49.638;11.070;2023-06-19T04:17:19;97917.53;;;21.52;41.48
70445;BME280;57902;49.638;11.070;2023-06-19T04:19:46;97917.03;;;21.46;41.19
70445;BME280;57902;49.638;11.070;2023-06-19T04:22:13;97914.41;;;21.46;41.60
70445;BME280;57902;49.638;11.070;2023-06-19T04:24:39;97920.38;;;21.48;41.52
70445;BME280;57902;49.638;11.070;2023-06-19T04:27:06;97916.34;;;21.56;41.25
70445;BME280;57902;49.638;11.070;2023-06-19T04:29:34;97917.53;;;21.40;41.98
70445;BME280;57902;49.638;11.070;2023-06-19T04:32:02;97921.56;;;21.44;41.88
70445;BME280;57902;49.638;11.070;2023-06-19T04:34:41;97926.09;;;21.54;41.77
70445;BME280;57902;49.638;11.070;2023-06-19T04:37:12;97921.97;;;21.51;42.25
70445;BME280;57902;49.638;11.070;2023-06-19T04:39:39;97926.56;;;21.47;43.03
70445;BME280;57902;49.638;11.070;2023-06-19T04:42:06;97926.94;;;21.54;42.51
70445;BME280;57902;49.638;11.070;2023-06-19T04:44:32;97923.72;;;21.50;42.86
70445;BME280;57902;49.638;11.070;2023-06-19T04:47:00;97929.91;;;21.49;42.55
70445;BME280;57902;49.638;11.070;2023-06-19T04:49:30;97941.72;;;21.55;43.07
70445;BME280;57902;49.638;11.070;2023-06-19T04:51:57;97941.84;;;21.54;43.27
70445;BME280;57902;49.638;11.070;2023-06-19T04:54:25;97937.03;;;21.70;43.14
70445;BME280;57902;49.638;11.070;2023-06-19T04:56:51;97938.69;;;21.71;43.23
70445;BME280;57902;49.638;11.070;2023-06-19T04:59:19;97946.38;;;21.63;43.38
70445;BME280;57902;49.638;11.070;2023-06-19T05:02:04;97943.25;;;21.69;43.68
70445;BME280;57902;49.638;11.070;2023-06-19T05:04:34;97944.84;;;21.81;43.23
70445;BME280;57902;49.638;11.070;2023-06-19T05:07:02;97944.41;;;21.76;43.58
70445;BME280;57902;49.638;11.070;2023-06-19T05:09:29;97948.88;;;21.97;42.98
70445;BME280;57902;49.638;11.070;2023-06-19T05:11:56;97946.19;;;22.08;44.52
70445;BME280;57902;49.638;11.070;2023-06-19T05:14:23;97954.81;;;21.99;44.02
70445;BME280;57902;49.638;11.070;2023-06-19T05:16:50;97948.34;;;22.03;43.61
70445;BME280;57902;49.638;11.070;2023-06-19T05:19:16;97939.13;;;22.41;43.84
70445;BME280;57902;49.638;11.070;2023-06-19T05:21:43;97942.06;;;23.40;41.82
70445;BME280;57902;49.638;11.070;2023-06-19T05:24:09;97954.41;;;24.57;39.05
70445;BME280;57902;49.638;11.070;2023-06-19T05:26:36;97953.63;;;25.78;38.73
70445;BME280;57902;49.638;11.070;2023-06-19T05:29:03;97955.03;;;26.18;36.03
70445;BME280;57902;49.638;11.070;2023-06-19T05:31:29;97967.97;;;26.74;35.63
70445;BME280;57902;49.638;11.070;2023-06-19T05:33:56;97973.56;;;26.70;36.14
70445;BME280;57902;49.638;11.070;2023-06-19T05:36:25;97978.34;;;26.93;36.12
70445;BME280;57902;49.638;11.070;2023-06-19T05:38:51;97980.47;;;26.01;37.50
70445;BME280;57902;49.638;11.070;2023-06-19T05:41:18;97987.13;;;25.59;38.22
70445;BME280;57902;49.638;11.070;2023-06-19T05:43:44;97981.69;;;25.33;38.33
70445;BME280;57902;49.638;11.070;2023-06-19T05:46:11;97988.69;;;24.57;40.39
70445;BME280;57902;49.638;11.070;2023-06-19T05:48:38;97984.78;;;24.52;41.74
70445;BME280;57902;49.638;11.070;2023-06-19T05:51:04;97988.84;;;24.66;40.29
70445;BME280;57902;49.638;11.070;2023-06-19T05:53:31;97994.13;;;24.36;42.52
70445;BME280;57902;49.638;11.070;2023-06-19T05:55:58;97996.03;;;24.34;42.11
70445;BME280;57902;49.638;11.070;2023-06-19T05:58:24;98005.06;;;24.41;43.06
70445;BME280;57902;49.638;11.070;2023-06-19T06:00:52;98007.16;;;24.38;44.03
70445;BME280;57902;49.638;11.070;2023-06-19T06:03:24;98012.81;;;24.53;43.46
70445;BME280;57902;49.638;11.070;2023-06-19T06:05:52;98024.78;;;24.67;43.24
70445;BME280;57902;49.638;11.070;2023-06-19T06:08:18;98029.34;;;24.74;43.47
70445;BME280;57902;49.638;11.070;2023-06-19T06:10:46;98022.38;;;24.73;43.13
70445;BME280;57902;49.638;11.070;2023-06-19T06:13:13;98026.69;;;24.74;43.53
70445;BME280;57902;49.638;11.070;2023-06-19T06:15:40;98023.38;;;24.62;44.23
70445;BME280;57902;49.638;11.070;2023-06-19T06:18:06;98024.06;;;24.65;43.56
70445;BME280;57902;49.638;11.070;2023-06-19T06:20:33;98023.34;;;24.43;44.42
70445;BME280;57902;49.638;11.070;2023-06-19T06:22:59;98023.50;;;24.71;45.12
70445;BME280;57902;49.638;11.070;2023-06-19T06:25:26;98024.06;;;25.31;42.93
70445;BME280;57902;49.638;11.070;2023-06-19T06:27:53;98027.25;;;26.09;41.47
70445;BME280;57902;49.638;11.070;2023-06-19T06:30:19;98027.13;;;26.54;40.71
70445;BME280;57902;49.638;11.070;2023-06-19T06:32:46;98034.88;;;27.18;41.10
70445;BME280;57902;49.638;11.070;2023-06-19T06:35:12;98030.81;;;28.67;37.29
70445;BME280;57902;49.638;11.070;2023-06-19T06:37:39;98038.31;;;29.76;37.85
70445;BME280;57902;49.638;11.070;2023-06-19T06:40:07;98047.44;;;29.33;35.55
70445;BME280;57902;49.638;11.070;2023-06-19T06:42:40;98053.66;;;28.93;37.53
70445;BME280;57902;49.638;11.070;2023-06-19T06:45:10;98053.13;;;27.99;38.87
70445;BME280;57902;49.638;11.070;2023-06-19T06:47:37;98060.56;;;27.61;41.05
70445;BME280;57902;49.638;11.070;2023-06-19T06:50:04;98058.34;;;26.87;42.28
70445;BME280;57902;49.638;11.070;2023-06-19T06:52:31;98058.88;;;26.73;43.30
70445;BME280;57902;49.638;11.070;2023-06-19T06:54:58;98063.41;;;26.26;43.64
70445;BME280;57902;49.638;11.070;2023-06-19T06:57:25;98066.22;;;25.97;43.79
70445;BME280;57902;49.638;11.070;2023-06-19T06:59:51;98062.13;;;25.57;45.72
70445;BME280;57902;49.638;11.070;2023-06-19T07:02:18;98066.38;;;25.40;46.74
70445;BME280;57902;49.638;11.070;2023-06-19T07:04:45;98067.72;;;24.87;48.04
70445;BME280;57902;49.638;11.070;2023-06-19T07:07:12;98063.03;;;24.71;49.19
70445;BME280;57902;49.638;11.070;2023-06-19T07:09:38;98062.75;;;24.74;49.25
70445;BME280;57902;49.638;11.070;2023-06-19T07:12:07;98064.72;;;24.82;49.61
70445;BME280;57902;49.638;11.070;2023-06-19T07:14:34;98064.56;;;24.73;49.66
70445;BME280;57902;49.638;11.070;2023-06-19T07:17:00;98061.06;;;24.53;50.04
70445;BME280;57902;49.638;11.070;2023-06-19T07:19:36;98066.91;;;24.76;49.12
70445;BME280;57902;49.638;11.070;2023-06-19T07:22:10;98072.91;;;24.69;52.20
70445;BME280;57902;49.638;11.070;2023-06-19T07:24:40;98072.47;;;24.83;48.89
70445;BME280;57902;49.638;11.070;2023-06-19T07:27:06;98078.81;;;25.00;48.14
70445;BME280;57902;49.638;11.070;2023-06-19T07:29:33;98083.25;;;25.00;49.27
70445;BME280;57902;49.638;11.070;2023-06-19T07:31:59;98087.97;;;25.06;48.89
70445;BME280;57902;49.638;11.070;2023-06-19T07:34:30;98073.09;;;25.05;50.01
70445;BME280;57902;49.638;11.070;2023-06-19T07:36:56;98079.72;;;25.28;48.27
70445;BME280;57902;49.638;11.070;2023-06-19T07:39:23;98073.22;;;25.13;48.71
70445;BME280;57902;49.638;11.070;2023-06-19T07:41:49;98074.38;;;25.01;49.06
70445;BME280;57902;49.638;11.070;2023-06-19T07:44:16;98081.31;;;25.02;50.78
70445;BME280;57902;49.638;11.070;2023-06-19T07:46:44;98081.28;;;25.21;49.78
70445;BME280;57902;49.638;11.070;2023-06-19T07:49:10;98082.13;;;25.59;48.46
70445;BME280;57902;49.638;11.070;2023-06-19T07:51:37;98079.16;;;26.00;47.65
70445;BME280;57902;49.638;11.070;2023-06-19T07:54:03;98082.13;;;26.51;46.80
70445;BME280;57902;49.638;11.070;2023-06-19T07:56:30;98066.84;;;26.99;44.23
70445;BME280;57902;49.638;11.070;2023-06-19T07:58:56;98081.88;;;26.98;44.47
70445;BME280;57902;49.638;11.070;2023-06-19T08:01:23;98074.56;;;26.92;44.48
70445;BME280;57902;49.638;11.070;2023-06-19T08:03:49;98078.81;;;26.85;45.14
70445;BME280;57902;49.638;11.070;2023-06-19T08:06:16;98076.69;;;26.88;44.60
70445;BME280;57902;49.638;11.070;2023-06-19T08:08:42;98077.63;;;27.05;43.92
70445;BME280;57902;49.638;11.070;2023-06-19T08:11:09;98077.28;;;27.00;44.54
70445;BME280;57902;49.638;11.070;2023-06-19T08:13:36;98076.94;;;26.59;46.71
70445;BME280;57902;49.638;11.070;2023-06-19T08:16:02;98086.38;;;26.44;46.08
70445;BME280;57902;49.638;11.070;2023-06-19T08:18:29;98089.16;;;26.60;47.92
70445;BME280;57902;49.638;11.070;2023-06-19T08:20:55;98091.41;;;26.91;48.01
70445;BME280;57902;49.638;11.070;2023-06-19T08:23:22;98086.34;;;27.24;45.73
70445;BME280;57902;49.638;11.070;2023-06-19T08:25:48;98086.38;;;27.58;45.39
70445;BME280;57902;49.638;11.070;2023-06-19T08:28:17;98096.41;;;28.57;43.34
70445;BME280;57902;49.638;11.070;2023-06-19T08:30:45;98095.22;;;29.50;41.31
70445;BME280;57902;49.638;11.070;2023-06-19T08:33:13;98103.22;;;29.73;39.88
70445;BME280;57902;49.638;11.070;2023-06-19T08:35:39;98100.63;;;29.65;39.16
70445;BME280;57902;49.638;11.070;2023-06-19T08:38:06;98098.41;;;28.46;41.92
70445;BME280;57902;49.638;11.070;2023-06-19T08:40:33;98098.78;;;28.68;41.87
70445;BME280;57902;49.638;11.070;2023-06-19T08:42:59;98098.78;;;28.76;41.25
70445;BME280;57902;49.638;11.070;2023-06-19T08:45:26;98102.34;;;28.18;43.85
70445;BME280;57902;49.638;11.070;2023-06-19T08:47:58;98108.91;;;28.05;45.70
70445;BME280;57902;49.638;11.070;2023-06-19T08:50:26;98105.25;;;27.98;43.69
70445;BME280;57902;49.638;11.070;2023-06-19T08:52:54;98108.75;;;27.64;45.44
70445;BME280;57902;49.638;11.070;2023-06-19T08:55:21;98106.34;;;27.53;46.24
70445;BME280;57902;49.638;11.070;2023-06-19T08:57:48;98106.06;;;27.30;46.61
70445;BME280;57902;49.638;11.070;2023-06-19T09:00:23;98106.69;;;27.50;46.34
70445;BME280;57902;49.638;11.070;2023-06-19T09:02:59;98114.97;;;27.29;46.99
70445;BME280;57902;49.638;11.070;2023-06-19T09:05:41;98110.81;;;27.26;48.73
70445;BME280;57902;49.638;11.070;2023-06-19T09:08:13;98110.88;;;27.08;48.82
70445;BME280;57902;49.638;11.070;2023-06-19T09:10:42;98109.69;;;27.02;47.74
70445;BME280;57902;49.638;11.070;2023-06-19T09:13:09;98104.47;;;26.93;48.32
70445;BME280;57902;49.638;11.070;2023-06-19T09:15:36;98109.31;;;26.79;47.89
70445;BME280;57902;49.638;11.070;2023-06-19T09:20:29;98116.09;;;26.10;49.17
70445;BME280;57902;49.638;11.070;2023-06-19T09:22:57;98115.31;;;25.99;50.05
70445;BME280;57902;49.638;11.070;2023-06-19T09:25:24;98113.91;;;25.95;49.94
70445;BME280;57902;49.638;11.070;2023-06-19T09:27:54;98116.31;;;25.89;50.38
70445;BME280;57902;49.638;11.070;2023-06-19T09:30:21;98111.66;;;25.73;51.34
70445;BME280;57902;49.638;11.070;2023-06-19T09:32:48;98116.84;;;25.64;50.95
70445;BME280;57902;49.638;11.070;2023-06-19T09:35:15;98118.16;;;25.41;51.60
70445;BME280;57902;49.638;11.070;2023-06-19T09:37:42;98120.94;;;25.29;53.39
70445;BME280;57902;49.638;11.070;2023-06-19T09:40:11;98115.53;;;25.41;53.84
70445;BME280;57902;49.638;11.070;2023-06-19T09:42:40;98109.97;;;25.34;56.22
70445;BME280;57902;49.638;11.070;2023-06-19T09:45:09;98105.16;;;25.20;57.27
70445;BME280;57902;49.638;11.070;2023-06-19T09:47:37;98110.19;;;24.74;58.28
70445;BME280;57902;49.638;11.070;2023-06-19T09:50:06;98111.59;;;24.88;56.64
70445;BME280;57902;49.638;11.070;2023-06-19T09:52:33;98122.41;;;24.85;56.49
70445;BME280;57902;49.638;11.070;2023-06-19T09:55:05;98115.22;;;24.77;56.74
70445;BME280;57902;49.638;11.070;2023-06-19T09:57:33;98115.47;;;24.74;57.46
70445;BME280;57902;49.638;11.070;2023-06-19T10:00:05;98118.13;;;24.64;57.76
70445;BME280;57902;49.638;11.070;2023-06-19T10:02:40;98112.31;;;24.80;58.36
70445;BME280;57902;49.638;11.070;2023-06-19T10:05:42;98106.31;;;24.88;56.07
70445;BME280;57902;49.638;11.070;2023-06-19T10:08:09;98110.00;;;25.14;56.55
70445;BME280;57902;49.638;11.070;2023-06-19T10:10:46;98105.13;;;25.39;55.50
70445;BME280;57902;49.638;11.070;2023-06-19T10:13:15;98103.25;;;25.59;55.05
70445;BME280;57902;49.638;11.070;2023-06-19T10:15:43;98111.03;;;25.89;53.69
70445;BME280;57902;49.638;11.070;2023-06-19T10:18:18;98111.09;;;26.07;53.26
70445;BME280;57902;49.638;11.070;2023-06-19T10:20:45;98112.09;;;26.24;50.83
70445;BME280;57902;49.638;11.070;2023-06-19T10:23:22;98101.31;;;26.35;51.46
70445;BME280;57902;49.638;11.070;2023-06-19T10:25:58;98106.63;;;26.71;51.22
70445;BME280;57902;49.638;11.070;2023-06-19T10:28:29;98105.84;;;27.23;49.54
70445;BME280;57902;49.638;11.070;2023-06-19T10:31:04;98097.16;;;27.65;46.95
70445;BME280;57902;49.638;11.070;2023-06-19T10:33:33;98104.53;;;27.88;48.27
70445;BME280;57902;49.638;11.070;2023-06-19T10:36:01;98094.78;;;27.97;45.14
70445;BME280;57902;49.638;11.070;2023-06-19T10:38:40;98097.50;;;28.13;45.61
70445;BME280;57902;49.638;11.070;2023-06-19T10:41:17;98104.50;;;28.31;48.55
70445;BME280;57902;49.638;11.070;2023-06-19T10:44:04;98092.09;;;28.31;46.05
70445;BME280;57902;49.638;11.070;2023-06-19T10:46:33;98094.63;;;28.57;45.88
70445;BME280;57902;49.638;11.070;2023-06-19T10:49:00;98092.50;;;28.69;46.34
70445;BME280;57902;49.638;11.070;2023-06-19T10:51:28;98089.31;;;28.98;44.31
70445;BME280;57902;49.638;11.070;2023-06-19T10:53:55;98088.31;;;29.08;42.97
70445;BME280;57902;49.638;11.070;2023-06-19T10:56:22;98074.72;;;28.37;44.02
70445;BME280;57902;49.638;11.070;2023-06-19T10:58:57;98072.22;;;28.60;43.87
70445;BME280;57902;49.638;11.070;2023-06-19T11:01:34;98071.28;;;28.69;44.71
70445;BME280;57902;49.638;11.070;2023-06-19T11:04:06;98067.28;;;28.90;43.91
70445;BME280;57902;49.638;11.070;2023-06-19T11:06:36;98070.09;;;28.72;45.15
70445;BME280;57902;49.638;11.070;2023-06-19T11:09:11;98066.28;;;28.83;44.03
70445;BME280;57902;49.638;11.070;2023-06-19T11:14:05;98059.59;;;29.28;43.52
70445;BME280;57902;49.638;11.070;2023-06-19T11:16:33;98070.03;;;29.29;43.79
70445;BME280;57902;49.638;11.070;2023-06-19T11:19:01;98059.25;;;29.23;44.80
70445;BME280;57902;49.638;11.070;2023-06-19T11:21:31;98062.38;;;29.35;43.14
70445;BME280;57902;49.638;11.070;2023-06-19T11:24:01;98060.50;;;29.52;41.82
70445;BME280;57902;49.638;11.070;2023-06-19T11:26:28;98058.75;;;29.27;42.53
70445;BME280;57902;49.638;11.070;2023-06-19T11:28:54;98055.75;;;29.30;43.35
70445;BME280;57902;49.638;11.070;2023-06-19T11:31:26;98053.41;;;29.44;42.93
70445;BME280;57902;49.638;11.070;2023-06-19T11:34:00;98049.19;;;29.58;42.02
70445;BME280;57902;49.638;11.070;2023-06-19T11:36:28;98050.50;;;29.06;43.07
70445;BME280;57902;49.638;11.070;2023-06-19T11:38:56;98052.00;;;28.92;44.19
70445;BME280;57902;49.638;11.070;2023-06-19T11:41:27;98041.69;;;29.05;43.07
70445;BME280;57902;49.638;11.070;2023-06-19T11:44:02;98034.03;;;29.19;42.45
70445;BME280;57902;49.638;11.070;2023-06-19T11:46:30;98035.72;;;29.28;42.59
70445;BME280;57902;49.638;11.070;2023-06-19T11:49:08;98035.63;;;29.44;42.22
70445;BME280;57902;49.638;11.070;2023-06-19T11:51:36;98041.25;;;29.49;41.90
70445;BME280;57902;49.638;11.070;2023-06-19T11:54:06;98036.28;;;29.46;42.44
70445;BME280;57902;49.638;11.070;2023-06-19T11:56:34;98031.47;;;29.50;41.85
70445;BME280;57902;49.638;11.070;2023-06-19T11:59:01;98033.09;;;29.03;43.39
70445;BME280;57902;49.638;11.070;2023-06-19T12:01:27;98023.75;;;29.15;42.57
70445;BME280;57902;49.638;11.070;2023-06-19T12:03:54;98029.19;;;29.30;42.15
70445;BME280;57902;49.638;11.070;2023-06-19T12:06:21;98030.00;;;29.39;42.67
70445;BME280;57902;49.638;11.070;2023-06-19T12:08:48;98025.31;;;29.49;42.19
70445;BME280;57902;49.638;11.070;2023-06-19T12:11:14;98011.38;;;29.56;43.20
70445;BME280;57902;49.638;11.070;2023-06-19T12:13:41;98016.50;;;29.57;42.53
70445;BME280;57902;49.638;11.070;2023-06-19T12:16:08;98012.19;;;29.88;42.52
70445;BME280;57902;49.638;11.070;2023-06-19T12:18:36;98003.28;;;30.04;41.40
70445;BME280;57902;49.638;11.070;2023-06-19T12:21:03;98004.41;;;30.09;40.63
70445;BME280;57902;49.638;11.070;2023-06-19T12:23:30;98000.88;;;30.17;40.66
70445;BME280;57902;49.638;11.070;2023-06-19T12:25:56;97996.97;;;30.28;39.83
70445;BME280;57902;49.638;11.070;2023-06-19T12:28:23;98001.81;;;30.24;40.37
70445;BME280;57902;49.638;11.070;2023-06-19T12:30:50;98001.28;;;29.82;40.15
70445;BME280;57902;49.638;11.070;2023-06-19T12:33:18;98000.69;;;29.64;40.05
70445;BME280;57902;49.638;11.070;2023-06-19T12:35:45;97994.38;;;29.65;40.77
70445;BME280;57902;49.638;11.070;2023-06-19T12:38:11;97994.78;;;29.85;40.18
70445;BME280;57902;49.638;11.070;2023-06-19T12:40:38;98000.81;;;30.02;39.72
70445;BME280;57902;49.638;11.070;2023-06-19T12:43:05;97997.50;;;30.23;38.70
70445;BME280;57902;49.638;11.070;2023-06-19T12:45:31;97999.47;;;30.29;39.03
70445;BME280;57902;49.638;11.070;2023-06-19T12:47:58;97991.66;;;30.28;39.76
70445;BME280;57902;49.638;11.070;2023-06-19T12:50:25;97988.59;;;29.93;40.23
70445;BME280;57902;49.638;11.070;2023-06-19T12:52:52;97986.59;;;30.18;39.47
70445;BME280;57902;49.638;11.070;2023-06-19T12:55:18;97986.41;;;30.19;39.67
70445;BME280;57902;49.638;11.070;2023-06-19T12:57:45;97987.56;;;30.40;39.05
70445;BME280;57902;49.638;11.070;2023-06-19T13:00:12;97983.44;;;30.76;37.83
70445;BME280;57902;49.638;11.070;2023-06-19T13:02:39;97987.16;;;30.51;37.76